Observation data for Post on 05/26/2019      Previous  Date  Next       Current Mesonet Observations  Soil Data  Daily Summary Page  Observations in Plain Language
KPT1 260500Z 20003KT 22/18 A2994 RMK A01 T02220183  RH  080%=      5-min Rain = 0
KPT1 260505Z 18002KT 22/18 A2994 RMK A01 T02190182  RH  081%=      5-min Rain = 0
KPT1 260510Z 16002KT 21/18 A2994 RMK A01 T02090181  RH  086%=      5-min Rain = 0
KPT1 260515Z 17002KT 21/18 A2994 RMK A01 T02080183  RH  088%=      5-min Rain = 0
KPT1 260520Z 16002KT 21/18 A2994 RMK A01 T02070183  RH  088%=      5-min Rain = 0
KPT1 260525Z 16003KT 21/18 A2994 RMK A01 T02080184  RH  088%=      5-min Rain = 0
KPT1 260530Z 16004KT 21/18 A2994 RMK A01 T02070182  RH  088%=      5-min Rain = 0
KPT1 260535Z 17005KT 21/18 A2994 RMK A01 T02050181  RH  088%=      5-min Rain = 0
KPT1 260540Z 17005KT 21/18 A2994 RMK A01 T02050181  RH  088%=      5-min Rain = 0
KPT1 260545Z 17005KT 21/18 A2994 RMK A01 T02060181  RH  087%=      5-min Rain = 0
KPT1 260550Z 17005KT 21/18 A2994 RMK A01 T02070180  RH  087%=      5-min Rain = 0
KPT1 260555Z 17005KT 21/18 A2994 RMK A01 T02090181  RH  086%=      5-min Rain = 0
KPT1 260600Z 16005KT 21/18 A2994 RMK A01 T02100180  RH  085%=      5-min Rain = 0
KPT1 260605Z 14004KT 21/18 A2994 RMK A01 T02100180  RH  085%=      5-min Rain = 0
KPT1 260610Z 12004KT 20/18 A2994 RMK A01 T02040178  RH  087%=      5-min Rain = 0
KPT1 260615Z 12004KT 21/18 A2994 RMK A01 T02050180  RH  088%=      5-min Rain = 0
KPT1 260620Z 13004KT 21/18 A2994 RMK A01 T02060179  RH  087%=      5-min Rain = 0
KPT1 260625Z 13004KT 20/18 A2994 RMK A01 T02040178  RH  087%=      5-min Rain = 0
KPT1 260630Z 13004KT 21/18 A2994 RMK A01 T02050179  RH  087%=      5-min Rain = 0
KPT1 260635Z 12005KT 21/18 A2994 RMK A01 T02060179  RH  087%=      5-min Rain = 0
KPT1 260640Z 12005KT 21/18 A2994 RMK A01 T02060178  RH  086%=      5-min Rain = 0
KPT1 260645Z 12006KT 21/18 A2994 RMK A01 T02050178  RH  087%=      5-min Rain = 0
KPT1 260650Z 12005KT 20/18 A2994 RMK A01 T02040178  RH  087%=      5-min Rain = 0
KPT1 260655Z 12005KT 20/18 A2994 RMK A01 T02040178  RH  088%=      5-min Rain = 0
KPT1 260700Z 13006KT 20/18 A2994 RMK A01 T02040178  RH  087%=      5-min Rain = 0
KPT1 260705Z 13006KT 20/18 A2994 RMK A01 T02040178  RH  087%=      5-min Rain = 0
KPT1 260710Z 13005KT 20/18 A2994 RMK A01 T02030177  RH  088%=      5-min Rain = 0
KPT1 260715Z 13005KT 20/18 A2994 RMK A01 T02020177  RH  088%=      5-min Rain = 0
KPT1 260720Z 12005KT 20/18 A2994 RMK A01 T02010177  RH  088%=      5-min Rain = 0
KPT1 260725Z 12005KT 20/18 A2994 RMK A01 T02000177  RH  089%=      5-min Rain = 0
KPT1 260730Z 13005KT 20/18 A2995 RMK A01 T02010177  RH  088%=      5-min Rain = 0
KPT1 260735Z 14006KT 20/18 A2995 RMK A01 T02040178  RH  087%=      5-min Rain = 0
KPT1 260740Z 14006KT 21/18 A2995 RMK A01 T02070179  RH  086%=      5-min Rain = 0
KPT1 260745Z 14006KT 21/18 A2994 RMK A01 T02070179  RH  086%=      5-min Rain = 0
KPT1 260750Z 14007KT 21/18 A2994 RMK A01 T02070180  RH  087%=      5-min Rain = 0
KPT1 260755Z 13007KT 21/18 A2994 RMK A01 T02100181  RH  085%=      5-min Rain = 0
KPT1 260800Z 12006KT 21/18 A2994 RMK A01 T02060179  RH  087%=      5-min Rain = 0
KPT1 260805Z 13008KT 21/18 A2994 RMK A01 T02090180  RH  086%=      5-min Rain = 0
KPT1 260810Z 13009KT 21/18 A2994 RMK A01 T02120180  RH  084%=      5-min Rain = 0
KPT1 260815Z 14009KT 21/18 A2994 RMK A01 T02120181  RH  084%=      5-min Rain = 0
KPT1 260820Z 14009KT 21/18 A2994 RMK A01 T02140181  RH  084%=      5-min Rain = 0
KPT1 260825Z 14009KT 21/18 A2994 RMK A01 T02130181  RH  084%=      5-min Rain = 0
KPT1 260830Z 14009KT 21/18 A2994 RMK A01 T02120182  RH  085%=      5-min Rain = 0
KPT1 260835Z 15009KT 21/18 A2994 RMK A01 T02120182  RH  085%=      5-min Rain = 0
KPT1 260840Z 15008KT 21/18 A2994 RMK A01 T02110183  RH  086%=      5-min Rain = 0
KPT1 260845Z 14008KT 21/18 A2994 RMK A01 T02110183  RH  086%=      5-min Rain = 0
KPT1 260850Z 14007KT 21/18 A2994 RMK A01 T02080182  RH  087%=      5-min Rain = 0
KPT1 260855Z 14006KT 21/18 A2994 RMK A01 T02080183  RH  088%=      5-min Rain = 0
KPT1 260900Z 13006KT 21/18 A2994 RMK A01 T02060183  RH  088%=      5-min Rain = 0
KPT1 260905Z 13007KT 21/18 A2994 RMK A01 T02070184  RH  089%=      5-min Rain = 0
KPT1 260910Z 13007KT 21/19 A2995 RMK A01 T02090185  RH  088%=      5-min Rain = 0
KPT1 260915Z 14007KT 21/19 A2995 RMK A01 T02100185  RH  088%=      5-min Rain = 0
KPT1 260920Z 14008KT 21/19 A2995 RMK A01 T02110186  RH  088%=      5-min Rain = 0
KPT1 260925Z 14008KT 21/19 A2995 RMK A01 T02110186  RH  088%=      5-min Rain = 0
KPT1 260930Z 14008KT 21/19 A2995 RMK A01 T02120186  RH  088%=      5-min Rain = 0
KPT1 260935Z 14007KT 21/19 A2995 RMK A01 T02110186  RH  088%=      5-min Rain = 0
KPT1 260940Z 14006KT 21/19 A2995 RMK A01 T02100187  RH  089%=      5-min Rain = 0
KPT1 260945Z 15007KT 21/19 A2995 RMK A01 T02110187  RH  089%=      5-min Rain = 0
KPT1 260950Z 15006KT 21/19 A2995 RMK A01 T02110188  RH  089%=      5-min Rain = 0
KPT1 260955Z 15006KT 21/19 A2995 RMK A01 T02110188  RH  089%=      5-min Rain = 0
KPT1 261000Z 14005KT 21/19 A2995 RMK A01 T02110188  RH  089%=      5-min Rain = 0
KPT1 261005Z 14005KT 21/19 A2995 RMK A01 T02110188  RH  089%=      5-min Rain = 0
KPT1 261010Z 13005KT 21/19 A2995 RMK A01 T02100188  RH  090%=      5-min Rain = 0
KPT1 261015Z 13005KT 21/19 A2995 RMK A01 T02100189  RH  090%=      5-min Rain = 0
KPT1 261020Z 13005KT 21/19 A2995 RMK A01 T02090189  RH  091%=      5-min Rain = 0
KPT1 261025Z 13005KT 21/19 A2996 RMK A01 T02100189  RH  091%=      5-min Rain = 0
KPT1 261030Z 14006KT 21/19 A2996 RMK A01 T02100190  RH  091%=      5-min Rain = 0
KPT1 261035Z 14006KT 21/19 A2996 RMK A01 T02100190  RH  090%=      5-min Rain = 0
KPT1 261040Z 14007KT 21/19 A2995 RMK A01 T02110190  RH  090%=      5-min Rain = 0
KPT1 261045Z 14008KT 21/19 A2996 RMK A01 T02120190  RH  090%=      5-min Rain = 0
KPT1 261050Z 14009KT 21/19 A2996 RMK A01 T02130190  RH  089%=      5-min Rain = 0
KPT1 261055Z 15009G17KT 21/19 A2996 RMK A01 T02130190  RH  089%=      5-min Rain = 0
KPT1 261100Z 15008G14KT 21/19 A2996 RMK A01 T02140190  RH  089%=      5-min Rain = 0
KPT1 261105Z 15009KT 21/19 A2996 RMK A01 T02140190  RH  089%=      5-min Rain = 0
KPT1 261110Z 15008G13KT 21/19 A2996 RMK A01 T02130190  RH  089%=      5-min Rain = 0
KPT1 261115Z 15008KT 21/19 A2996 RMK A01 T02140190  RH  089%=      5-min Rain = 0
KPT1 261120Z 15009KT 21/19 A2996 RMK A01 T02130190  RH  089%=      5-min Rain = 0
KPT1 261125Z 15009KT 21/19 A2996 RMK A01 T02130189  RH  089%=      5-min Rain = 0
KPT1 261130Z 15010KT 21/19 A2997 RMK A01 T02130189  RH  089%=      5-min Rain = 0
KPT1 261135Z 15009KT 21/19 A2997 RMK A01 T02130189  RH  089%=      5-min Rain = 0
KPT1 261140Z 15010KT 21/19 A2997 RMK A01 T02120189  RH  089%=      5-min Rain = 0
KPT1 261145Z 16009KT 21/19 A2997 RMK A01 T02120189  RH  089%=      5-min Rain = 0
KPT1 261150Z 16008KT 21/19 A2998 RMK A01 T02120189  RH  089%=      5-min Rain = 0
KPT1 261155Z 16009KT 21/19 A2998 RMK A01 T02120189  RH  089%=      5-min Rain = 0
KPT1 261200Z 16008KT 21/19 A2998 RMK A01 T02110189  RH  089%=      5-min Rain = 0
KPT1 261205Z 15009KT 21/19 A2998 RMK A01 T02110189  RH  089%=      5-min Rain = 0
KPT1 261210Z 16009KT 21/19 A2998 RMK A01 T02110189  RH  089%=      5-min Rain = 0
KPT1 261215Z 15009KT 21/19 A2998 RMK A01 T02110189  RH  089%=      5-min Rain = 0
KPT1 261220Z 15008KT 21/19 A2998 RMK A01 T02110189  RH  090%=      5-min Rain = 0
KPT1 261225Z 15008KT 21/19 A2998 RMK A01 T02110189  RH  090%=      5-min Rain = 0
KPT1 261230Z 15008KT 21/19 A2998 RMK A01 T02100189  RH  090%=      5-min Rain = 0
KPT1 261235Z 15007KT 21/19 A2999 RMK A01 T02100189  RH  090%=      5-min Rain = 0
KPT1 261240Z 16009KT 21/19 A2999 RMK A01 T02100189  RH  090%=      5-min Rain = 0
KPT1 261245Z 15007KT 21/19 A2999 RMK A01 T02100189  RH  090%=      5-min Rain = 0
KPT1 261250Z 15007G12KT 21/19 A2999 RMK A01 T02100189  RH  090%=      5-min Rain = 0
KPT1 261255Z 15008KT 21/19 A2999 RMK A01 T02110188  RH  089%=      5-min Rain = 0
KPT1 261300Z 15009KT 21/19 A2999 RMK A01 T02110189  RH  089%=      5-min Rain = 0
KPT1 261305Z 15010G15KT 21/19 A2999 RMK A01 T02110188  RH  089%=      5-min Rain = 0
KPT1 261310Z 15009KT 21/19 A2999 RMK A01 T02110188  RH  089%=      5-min Rain = 0
KPT1 261315Z 15011KT 21/19 A2999 RMK A01 T02100188  RH  089%=      5-min Rain = 0
KPT1 261320Z 15012KT 21/19 A2999 RMK A01 T02100187  RH  089%=      5-min Rain = 0
KPT1 261325Z 15010G15KT 21/19 A2999 RMK A01 T02090187  RH  089%=      5-min Rain = 0
KPT1 261330Z 15011G17KT 21/19 A2999 RMK A01 T02090186  RH  089%=      5-min Rain = 0
KPT1 261335Z 15011KT 21/19 A2999 RMK A01 T02100186  RH  089%=      5-min Rain = 0
KPT1 261340Z 15010KT 21/19 A2999 RMK A01 T02100186  RH  089%=      5-min Rain = 0
KPT1 261345Z 15012G17KT 21/19 A2999 RMK A01 T02090186  RH  089%=      5-min Rain = 0
KPT1 261350Z 15010G15KT 21/19 A2999 RMK A01 T02090186  RH  088%=      5-min Rain = 0
KPT1 261355Z 15011G16KT 21/19 A2998 RMK A01 T02090185  RH  088%=      5-min Rain = 0
KPT1 261400Z 15013KT 21/19 A2999 RMK A01 T02100185  RH  088%=      5-min Rain = 0
KPT1 261405Z 15012KT 21/19 A2999 RMK A01 T02100185  RH  088%=      5-min Rain = 0
KPT1 261410Z 15013KT 21/18 A2999 RMK A01 T02100184  RH  088%=      5-min Rain = 0
KPT1 261415Z 15012KT 21/19 A2999 RMK A01 T02100185  RH  088%=      5-min Rain = 0
KPT1 261420Z 15009G14KT 21/19 A2999 RMK A01 T02110186  RH  088%=      5-min Rain = 0
KPT1 261425Z 15010G15KT 21/19 A2999 RMK A01 T02120185  RH  087%=      5-min Rain = 0
KPT1 261430Z 15011G16KT 21/19 A30 RMK A01 T02120185  RH  087%=      5-min Rain = 0
KPT1 261435Z 15010G15KT 21/19 A30 RMK A01 T02130186  RH  087%=      5-min Rain = 0
KPT1 261440Z 15010G16KT 22/19 A30 RMK A01 T02150186  RH  086%=      5-min Rain = 0
KPT1 261445Z 15011KT 22/19 A30 RMK A01 T02170186  RH  084%=      5-min Rain = 0
KPT1 261450Z 15012G17KT 22/18 A3001 RMK A01 T02190184  RH  083%=      5-min Rain = 0
KPT1 261455Z 15011KT 22/18 A3001 RMK A01 T02180184  RH  083%=      5-min Rain = 0
KPT1 261500Z 15012KT 22/18 A3001 RMK A01 T02180183  RH  083%=      5-min Rain = 0
KPT1 261505Z 15010G15KT 22/18 A3001 RMK A01 T02180184  RH  083%=      5-min Rain = 0
KPT1 261510Z 15011KT 22/18 A30 RMK A01 T02190184  RH  083%=      5-min Rain = 0
KPT1 261515Z 14012G17KT 22/18 A30 RMK A01 T02180183  RH  083%=      5-min Rain = 0
KPT1 261520Z 15012KT 22/18 A30 RMK A01 T02180183  RH  083%=      5-min Rain = 0
KPT1 261525Z 16012KT 22/18 A30 RMK A01 T02190184  RH  082%=      5-min Rain = 0
KPT1 261530Z 16010KT 22/18 A30 RMK A01 T02190184  RH  083%=      5-min Rain = 0
KPT1 261535Z 16013G19KT 22/18 A3001 RMK A01 T02180183  RH  083%=      5-min Rain = 0
KPT1 261540Z 16012G17KT 22/18 A3001 RMK A01 T02180183  RH  083%=      5-min Rain = 0
KPT1 261545Z 15010G15KT 22/18 A30 RMK A01 T02180184  RH  083%=      5-min Rain = 0
KPT1 261550Z 16012KT 22/18 A30 RMK A01 T02190184  RH  082%=      5-min Rain = 0
KPT1 261555Z 15012G17KT 22/18 A30 RMK A01 T02200184  RH  082%=      5-min Rain = 0
KPT1 261600Z 15012G18KT 22/18 A30 RMK A01 T02200184  RH  082%=      5-min Rain = 0
KPT1 261605Z 16013G18KT 22/18 A30 RMK A01 T02210184  RH  082%=      5-min Rain = 0
KPT1 261610Z 16012G17KT 22/18 A2999 RMK A01 T02220184  RH  081%=      5-min Rain = 0
KPT1 261615Z 16012G19KT 22/18 A2999 RMK A01 T02230184  RH  081%=      5-min Rain = 0
KPT1 261620Z 16012G17KT 23/19 A30 RMK A01 T02250185  RH  080%=      5-min Rain = 0
KPT1 261625Z 16011G18KT 23/19 A30 RMK A01 T02250186  RH  081%=      5-min Rain = 0
KPT1 261630Z 16011G16KT 22/19 A30 RMK A01 T02240185  RH  081%=      5-min Rain = 0
KPT1 261635Z 15009G14KT 23/19 A30 RMK A01 T02250187  RH  081%=      5-min Rain = 0
KPT1 261640Z 15010KT 22/19 A30 RMK A01 T02240187  RH  081%=      5-min Rain = 0
KPT1 261645Z 15010KT 23/19 A30 RMK A01 T02250187  RH  081%=      5-min Rain = 0
KPT1 261650Z 15009G14KT 23/19 A30 RMK A01 T02250187  RH  081%=      5-min Rain = 0
KPT1 261655Z 15009G14KT 23/19 A30 RMK A01 T02250187  RH  081%=      5-min Rain = 0
KPT1 261700Z 16011G16KT 23/19 A2999 RMK A01 T02260188  RH  081%=      5-min Rain = 0
KPT1 261705Z 17012G18KT 23/19 A30 RMK A01 T02280187  RH  080%=      5-min Rain = 0
KPT1 261710Z 16011KT 23/19 A30 RMK A01 T02300187  RH  079%=      5-min Rain = 0
KPT1 261715Z 17010G15KT 23/19 A30 RMK A01 T02300188  RH  079%=      5-min Rain = 0
KPT1 261720Z 17011G16KT 23/19 A30 RMK A01 T02310188  RH  079%=      5-min Rain = 0
KPT1 261725Z 17011G17KT 23/19 A30 RMK A01 T02310187  RH  078%=      5-min Rain = 0
KPT1 261730Z 17011G17KT 23/19 A30 RMK A01 T02330188  RH  078%=      5-min Rain = 0
KPT1 261735Z 18014G19KT 23/19 A30 RMK A01 T02340187  RH  077%=      5-min Rain = 0
KPT1 261740Z 18012G20KT 23/19 A30 RMK A01 T02340187  RH  077%=      5-min Rain = 0
KPT1 261745Z 16011G16KT 23/19 A30 RMK A01 T02340189  RH  078%=      5-min Rain = 0
KPT1 261750Z 16012KT 23/19 A30 RMK A01 T02340188  RH  077%=      5-min Rain = 0
KPT1 261755Z 16012G18KT 24/19 A30 RMK A01 T02350189  RH  077%=      5-min Rain = 0
KPT1 261800Z 16013KT 23/19 A30 RMK A01 T02340187  RH  077%=      5-min Rain = 0
KPT1 261805Z 17011G16KT 24/19 A2999 RMK A01 T02380189  RH  076%=      5-min Rain = 0
KPT1 261810Z 17013G20KT 24/19 A2999 RMK A01 T02360188  RH  076%=      5-min Rain = 0
KPT1 261815Z 17013KT 24/19 A2999 RMK A01 T02370189  RH  076%=      5-min Rain = 0
KPT1 261820Z 18013G18KT 24/19 A2999 RMK A01 T02380189  RH  076%=      5-min Rain = 0
KPT1 261825Z 17013G20KT 24/19 A2999 RMK A01 T02370189  RH  076%=      5-min Rain = 0
KPT1 261830Z 17014G19KT 24/19 A2999 RMK A01 T02350188  RH  077%=      5-min Rain = 0
KPT1 261835Z 17013G18KT 24/19 A2998 RMK A01 T02360188  RH  077%=      5-min Rain = 0
KPT1 261840Z 16012G18KT 24/19 A2998 RMK A01 T02360189  RH  077%=      5-min Rain = 0
KPT1 261845Z 17014G21KT 24/19 A2998 RMK A01 T02360188  RH  076%=      5-min Rain = 0
KPT1 261850Z 17012G17KT 24/19 A2999 RMK A01 T02360189  RH  077%=      5-min Rain = 0
KPT1 261855Z 17014G22KT 24/19 A2999 RMK A01 T02380190  RH  076%=      5-min Rain = 0
KPT1 261900Z 17013G18KT 24/19 A2999 RMK A01 T02400190  RH  076%=      5-min Rain = 0
KPT1 261905Z 18013G21KT 24/19 A2999 RMK A01 T02390190  RH  076%=      5-min Rain = 0
KPT1 261910Z 18013G18KT 24/19 A2999 RMK A01 T02370189  RH  076%=      5-min Rain = 0
KPT1 261915Z 17011KT 24/19 A2999 RMK A01 T02370189  RH  076%=      5-min Rain = 0
KPT1 261920Z 19011G16KT 24/19 A30 RMK A01 T02390190  RH  076%=      5-min Rain = 0
KPT1 261925Z 18011G18KT 24/19 A30 RMK A01 T02380190  RH  077%=      5-min Rain = 0
KPT1 261930Z 18011KT 24/19 A30 RMK A01 T02380191  RH  077%=      5-min Rain = 0
KPT1 261935Z 18011KT 24/19 A30 RMK A01 T02360190  RH  077%=      5-min Rain = 0
KPT1 261940Z 18009KT 24/19 A30 RMK A01 T02360191  RH  078%=      5-min Rain = 0
KPT1 261945Z 18008KT 24/19 A30 RMK A01 T02380192  RH  078%=      5-min Rain = 0
KPT1 261950Z 18008G13KT 24/19 A30 RMK A01 T02390193  RH  077%=      5-min Rain = 0
KPT1 261955Z 18008KT 24/19 A30 RMK A01 T02390193  RH  077%=      5-min Rain = 0
KPT1 262000Z 18007G12KT 24/19 A30 RMK A01 T02400194  RH  078%=      5-min Rain = 0
KPT1 262005Z 18007G13KT 24/20 A30 RMK A01 T02430196  RH  077%=      5-min Rain = 0
KPT1 262010Z 17008KT 24/20 A2999 RMK A01 T02420196  RH  077%=      5-min Rain = 0
KPT1 262015Z 17009KT 24/20 A2999 RMK A01 T02410195  RH  077%=      5-min Rain = 0
KPT1 262020Z 16008KT 24/20 A2999 RMK A01 T02420195  RH  077%=      5-min Rain = 0
KPT1 262025Z 16009KT 24/20 A2998 RMK A01 T02430195  RH  077%=      5-min Rain = 0
KPT1 262030Z 15008KT 24/20 A2998 RMK A01 T02440196  RH  077%=      5-min Rain = 0
KPT1 262035Z 15008KT 24/20 A2998 RMK A01 T02440196  RH  076%=      5-min Rain = 0
KPT1 262040Z 15009KT 24/20 A2998 RMK A01 T02440195  RH  077%=      5-min Rain = 0
KPT1 262045Z 15009KT 24/20 A2998 RMK A01 T02440195  RH  076%=      5-min Rain = 0
KPT1 262050Z 15009KT 25/20 A2997 RMK A01 T02450196  RH  076%=      5-min Rain = 0
KPT1 262055Z 14010KT 25/20 A2997 RMK A01 T02500197  RH  075%=      5-min Rain = 0
KPT1 262100Z 14009KT 26/20 A2996 RMK A01 T02560199  RH  073%=      5-min Rain = 0
KPT1 262105Z 15011G16KT 26/20 A2996 RMK A01 T02560197  RH  072%=      5-min Rain = 0
KPT1 262110Z 15010KT 26/20 A2996 RMK A01 T02550197  RH  072%=      5-min Rain = 0
KPT1 262115Z 15009KT 26/20 A2996 RMK A01 T02560198  RH  072%=      5-min Rain = 0
KPT1 262120Z 14009KT 26/20 A2996 RMK A01 T02560198  RH  072%=      5-min Rain = 0
KPT1 262125Z 14008KT 25/20 A2996 RMK A01 T02540197  RH  073%=      5-min Rain = 0
KPT1 262130Z 14008KT 25/20 A2996 RMK A01 T02530197  RH  073%=      5-min Rain = 0
KPT1 262135Z 15009KT 26/20 A2995 RMK A01 T02550196  RH  072%=      5-min Rain = 0
KPT1 262140Z 16008G15KT 26/20 A2995 RMK A01 T02550196  RH  072%=      5-min Rain = 0
KPT1 262145Z 16010KT 26/20 A2995 RMK A01 T02550195  RH  071%=      5-min Rain = 0
KPT1 262150Z 16011G17KT 26/19 A2995 RMK A01 T02550194  RH  071%=      5-min Rain = 0
KPT1 262155Z 15012G18KT 26/19 A2994 RMK A01 T02560193  RH  070%=      5-min Rain = 0
KPT1 262200Z 15012G17KT 26/19 A2994 RMK A01 T02570192  RH  069%=      5-min Rain = 0
KPT1 262205Z 16009G15KT 26/19 A2994 RMK A01 T02590193  RH  069%=      5-min Rain = 0
KPT1 262210Z 16009G14KT 26/19 A2993 RMK A01 T02600194  RH  069%=      5-min Rain = 0
KPT1 262215Z 15012KT 26/19 A2993 RMK A01 T02590192  RH  068%=      5-min Rain = 0
KPT1 262220Z 15012KT 26/19 A2992 RMK A01 T02580192  RH  069%=      5-min Rain = 0
KPT1 262225Z 15013G18KT 26/19 A2991 RMK A01 T02570190  RH  068%=      5-min Rain = 0
KPT1 262230Z 13014G20KT 26/19 A2991 RMK A01 T02550191  RH  069%=      5-min Rain = 0
KPT1 262235Z 13012G18KT 25/19 A299 RMK A01 T02540192  RH  071%=      5-min Rain = 0
KPT1 262240Z 14012KT 26/19 A299 RMK A01 T02550192  RH  070%=      5-min Rain = 0
KPT1 262245Z 14013KT 26/19 A299 RMK A01 T02560192  RH  069%=      5-min Rain = 0
KPT1 262250Z 14011G18KT 26/19 A299 RMK A01 T02570192  RH  069%=      5-min Rain = 0
KPT1 262255Z 14013G19KT 26/19 A2989 RMK A01 T02570191  RH  069%=      5-min Rain = 0
KPT1 262300Z 14011G16KT 26/19 A2989 RMK A01 T02580192  RH  069%=      5-min Rain = 0
KPT1 262305Z 14010KT 26/19 A2989 RMK A01 T02580192  RH  069%=      5-min Rain = 0
KPT1 262310Z 14011G16KT 26/19 A2989 RMK A01 T02580192  RH  069%=      5-min Rain = 0
KPT1 262315Z 13011KT 26/19 A2989 RMK A01 T02560193  RH  070%=      5-min Rain = 0
KPT1 262320Z 14013G18KT 26/19 A2989 RMK A01 T02570193  RH  069%=      5-min Rain = 0
KPT1 262325Z 14014G19KT 26/19 A2989 RMK A01 T02570191  RH  069%=      5-min Rain = 0
KPT1 262330Z 14013G18KT 26/19 A2989 RMK A01 T02560191  RH  069%=      5-min Rain = 0
KPT1 262335Z 14011G17KT 26/19 A2988 RMK A01 T02550192  RH  070%=      5-min Rain = 0
KPT1 262340Z 13011G16KT 25/19 A2987 RMK A01 T02530194  RH  072%=      5-min Rain = 0
KPT1 262345Z 12011G19KT 25/20 A2985 RMK A01 T02530195  RH  072%=      5-min Rain = 0
KPT1 262350Z 12012KT 26/19 A2985 RMK A01 T02550193  RH  071%=      5-min Rain = 0
KPT1 262355Z 12013G18KT 26/19 A2985 RMK A01 T02560193  RH  070%=      5-min Rain = 0
KPT1 270000Z 13012G18KT 26/19 A2985 RMK A01 T02550192  RH  070%=      5-min Rain = 0
KPT1 270005Z 14012G18KT 26/19 A2987 RMK A01 T02570188  RH  068%=      5-min Rain = 0
KPT1 270010Z 15013G20KT 26/19 A2988 RMK A01 T02580186  RH  066%=      5-min Rain = 0
KPT1 270015Z 16010G18KT 26/18 A2989 RMK A01 T02590184  RH  065%=      5-min Rain = 0
KPT1 270020Z 17009KT 26/19 A2989 RMK A01 T02600185  RH  065%=      5-min Rain = 0
KPT1 270025Z 17009G14KT 26/19 A2989 RMK A01 T02620185  RH  064%=      5-min Rain = 0
KPT1 270030Z 16012G19KT 26/18 A2989 RMK A01 T02640184  RH  063%=      5-min Rain = 0
KPT1 270035Z 16013G21KT 26/18 A2988 RMK A01 T02640182  RH  062%=      5-min Rain = 0
KPT1 270040Z 16012G17KT 26/18 A2988 RMK A01 T02640183  RH  063%=      5-min Rain = 0
KPT1 270045Z 16012G17KT 26/18 A2988 RMK A01 T02630182  RH  063%=      5-min Rain = 0
KPT1 270050Z 15012G20KT 26/18 A2987 RMK A01 T02620182  RH  063%=      5-min Rain = 0
KPT1 270055Z 15013G18KT 26/18 A2987 RMK A01 T02600181  RH  063%=      5-min Rain = 0
KPT1 270100Z 15012G19KT 26/18 A2987 RMK A01 T02590181  RH  064%=      5-min Rain = 0
KPT1 270105Z 15012G18KT 26/18 A2987 RMK A01 T02570181  RH  064%=      5-min Rain = 0
KPT1 270110Z 15013G18KT 26/18 A2986 RMK A01 T02560181  RH  065%=      5-min Rain = 0
KPT1 270115Z 15011G18KT 25/18 A2986 RMK A01 T02540181  RH  065%=      5-min Rain = 0
KPT1 270120Z 15013G18KT 25/18 A2986 RMK A01 T02530181  RH  066%=      5-min Rain = 0
KPT1 270125Z 15013G21KT 25/18 A2986 RMK A01 T02510181  RH  067%=      5-min Rain = 0
KPT1 270130Z 15012G17KT 25/18 A2986 RMK A01 T02500181  RH  067%=      5-min Rain = 0
KPT1 270135Z 15013G18KT 25/18 A2986 RMK A01 T02490180  RH  067%=      5-min Rain = 0
KPT1 270140Z 16012G17KT 25/18 A2986 RMK A01 T02480180  RH  068%=      5-min Rain = 0
KPT1 270145Z 15011KT 25/18 A2986 RMK A01 T02470181  RH  068%=      5-min Rain = 0
KPT1 270150Z 15011G16KT 25/18 A2986 RMK A01 T02450181  RH  069%=      5-min Rain = 0
KPT1 270155Z 15010KT 24/18 A2985 RMK A01 T02440181  RH  070%=      5-min Rain = 0
KPT1 270200Z 15011G17KT 24/18 A2985 RMK A01 T02430181  RH  070%=      5-min Rain = 0
KPT1 270205Z 15012G17KT 24/18 A2985 RMK A01 T02420180  RH  070%=      5-min Rain = 0
KPT1 270210Z 15012KT 24/18 A2985 RMK A01 T02420180  RH  070%=      5-min Rain = 0
KPT1 270215Z 15010G15KT 24/18 A2985 RMK A01 T02410180  RH  071%=      5-min Rain = 0
KPT1 270220Z 15010G16KT 24/18 A2985 RMK A01 T02400180  RH  071%=      5-min Rain = 0
KPT1 270225Z 15010G15KT 24/18 A2985 RMK A01 T02390180  RH  071%=      5-min Rain = 0
KPT1 270230Z 15009KT 24/18 A2986 RMK A01 T02380180  RH  072%=      5-min Rain = 0
KPT1 270235Z 15009KT 24/18 A2987 RMK A01 T02380180  RH  072%=      5-min Rain = 0
KPT1 270240Z 16008KT 24/18 A2987 RMK A01 T02370181  RH  072%=      5-min Rain = 0
KPT1 270245Z 15008KT 24/18 A2987 RMK A01 T02370181  RH  073%=      5-min Rain = 0
KPT1 270250Z 15010KT 24/18 A2987 RMK A01 T02370181  RH  073%=      5-min Rain = 0
KPT1 270255Z 15008KT 24/18 A2987 RMK A01 T02360181  RH  073%=      5-min Rain = 0
KPT1 270300Z 16007KT 24/18 A2987 RMK A01 T02350181  RH  074%=      5-min Rain = 0
KPT1 270305Z 16008KT 23/18 A2987 RMK A01 T02330182  RH  075%=      5-min Rain = 0
KPT1 270310Z 16009G14KT 24/18 A2987 RMK A01 T02350182  RH  074%=      5-min Rain = 0
KPT1 270315Z 16008KT 23/18 A2987 RMK A01 T02340182  RH  074%=      5-min Rain = 0
KPT1 270320Z 16007KT 23/18 A2987 RMK A01 T02330182  RH  075%=      5-min Rain = 0
KPT1 270325Z 16008KT 23/18 A2987 RMK A01 T02330182  RH  075%=      5-min Rain = 0
KPT1 270330Z 16006KT 23/18 A2988 RMK A01 T02310182  RH  076%=      5-min Rain = 0
KPT1 270335Z 16006KT 23/18 A2988 RMK A01 T02300182  RH  076%=      5-min Rain = 0
KPT1 270340Z 17007KT 23/18 A2987 RMK A01 T02300182  RH  077%=      5-min Rain = 0
KPT1 270345Z 17007KT 23/18 A2987 RMK A01 T02280182  RH  077%=      5-min Rain = 0
KPT1 270350Z 17005KT 23/18 A2987 RMK A01 T02260182  RH  078%=      5-min Rain = 0
KPT1 270355Z 18005KT 23/18 A2988 RMK A01 T02260182  RH  078%=      5-min Rain = 0
KPT1 270400Z 18004KT 23/18 A2988 RMK A01 T02260181  RH  078%=      5-min Rain = 0
KPT1 270405Z 17005KT 23/18 A2988 RMK A01 T02250181  RH  078%=      5-min Rain = 0
KPT1 270410Z 18007KT 23/18 A2988 RMK A01 T02260181  RH  078%=      5-min Rain = 0
KPT1 270415Z 17007KT 23/18 A2987 RMK A01 T02250181  RH  078%=      5-min Rain = 0
KPT1 270420Z 17008G13KT 23/18 A2987 RMK A01 T02250182  RH  078%=      5-min Rain = 0
KPT1 270425Z 17009KT 23/18 A2987 RMK A01 T02260182  RH  078%=      5-min Rain = 0
KPT1 270430Z 17009KT 23/18 A2987 RMK A01 T02260182  RH  078%=      5-min Rain = 0
KPT1 270435Z 16009KT 23/18 A2987 RMK A01 T02270181  RH  077%=      5-min Rain = 0
KPT1 270440Z 16009KT 23/18 A2986 RMK A01 T02270181  RH  078%=      5-min Rain = 0
KPT1 270445Z 16009KT 23/18 A2986 RMK A01 T02250181  RH  078%=      5-min Rain = 0
KPT1 270450Z 16007G12KT 22/18 A2986 RMK A01 T02240181  RH  079%=      5-min Rain = 0
KPT1 270455Z 17007KT 22/18 A2986 RMK A01 T02220181  RH  080%=      5-min Rain = 0

Page generated in 0.0266 seconds.